< < Back
Terminal Aerodrome Forecast


Current Version              Previous Versions:   1  2  3  4  5  6  7  8  9  

Terminal Aerodrome Forecast

630
FTUS42 KJAX 051720
TAFGNV
TAF
KGNV 051720Z 0518/0618 29016G28KT P6SM FEW050
     FM052300 29010G15KT P6SM SKC
     FM060100 29005KT P6SM SKC=

Latest METAR

205
SAUS70 KWBC 061100 RRK
MTRGNV
METAR KGNV 061053Z 31005KT 10SM CLR 09/06 A2989 RMK AO2 SLP119
T00890056


USA.gov is the U.S. government's official web portal to all federal, state and local government web resources and services.